Time;durP1;ratioP1;P1;durP2;ratioP2;P2;SDS_P1;SDS_P2;PMS_P1;PMS_P2;Temp;Humidity;BMP_temperature;BMP_pressure;BME280_temperature;BME280_humidity;BME280_pressure;Samples;Min_cycle;Max_cycle;Signal;HPM_P1;HPM_P2
2023/07/24 00:00:00;;;;;;;10.60;8.00;;;17.00;93.60;;;;;;5016704;28;20087;-44
2023/07/24 00:02:28;;;;;;;9.70;7.95;;;17.10;93.60;;;;;;5023182;28;20026;-43
2023/07/24 00:05:00;;;;;;;9.32;6.50;;;17.10;93.60;;;;;;5014764;28;20172;-46
2023/07/24 00:07:27;;;;;;;14.25;8.98;;;17.10;93.70;;;;;;5030282;28;20447;-43
2023/07/24 00:09:55;;;;;;;8.88;6.88;;;17.10;93.80;;;;;;5026435;28;20370;-45
2023/07/24 00:12:22;;;;;;;9.63;7.90;;;17.10;93.80;;;;;;5033616;28;20036;-44
2023/07/24 00:14:48;;;;;;;9.52;8.52;;;17.10;93.90;;;;;;5025675;28;20076;-44
2023/07/24 00:17:15;;;;;;;10.60;8.25;;;17.10;93.90;;;;;;5030057;28;20042;-44
2023/07/24 00:19:42;;;;;;;9.90;8.77;;;17.10;93.80;;;;;;5013965;28;20038;-46
2023/07/24 00:22:11;;;;;;;10.98;7.95;;;17.10;93.90;;;;;;5014743;28;20354;-43
2023/07/24 00:24:37;;;;;;;;;;;17.10;94.00;;;;;;5033345;28;20033;-44
2023/07/24 00:27:23;;;;;;;10.50;7.45;;;17.10;94.00;;;;;;5032355;28;19913;-43
2023/07/24 00:29:50;;;;;;;9.98;7.40;;;17.10;94.10;;;;;;5012397;28;20026;-45
2023/07/24 00:32:18;;;;;;;9.25;8.10;;;17.00;94.10;;;;;;5029921;28;20084;-44
2023/07/24 00:34:44;;;;;;;10.40;8.40;;;17.00;94.10;;;;;;5032747;28;20616;-45
2023/07/24 00:37:10;;;;;;;9.38;8.32;;;17.00;94.20;;;;;;5019873;28;20033;-46
2023/07/24 00:39:37;;;;;;;10.43;7.57;;;17.00;94.20;;;;;;5028584;28;20350;-45
2023/07/24 00:42:04;;;;;;;10.50;7.68;;;17.00;94.30;;;;;;5029556;28;20053;-42
2023/07/24 00:44:37;;;;;;;11.55;9.38;;;17.00;94.20;;;;;;5032688;28;20116;-43
2023/07/24 00:47:22;;;;;;;10.02;8.38;;;16.90;94.20;;;;;;5019665;28;20034;-43
2023/07/24 00:49:50;;;;;;;10.73;8.38;;;16.90;94.20;;;;;;5022593;28;20029;-45
2023/07/24 00:52:18;;;;;;;11.07;8.48;;;16.90;94.20;;;;;;5015299;28;20033;-43
2023/07/24 00:54:48;;;;;;;13.53;8.17;;;16.90;94.10;;;;;;5029027;28;20476;-43
2023/07/24 00:57:16;;;;;;;13.35;8.20;;;16.90;94.10;;;;;;5032306;28;20112;-43
2023/07/24 00:59:44;;;;;;;10.60;8.63;;;16.90;94.20;;;;;;5032186;28;20029;-45
2023/07/24 01:02:11;;;;;;;12.63;8.75;;;16.90;94.00;;;;;;5030053;28;20037;-43
2023/07/24 01:04:37;;;;;;;8.82;7.88;;;16.90;94.10;;;;;;5032287;28;20053;-43
2023/07/24 01:07:03;;;;;;;14.52;8.90;;;16.90;94.00;;;;;;5029703;28;20078;-43
2023/07/24 01:09:35;;;;;;;10.48;8.18;;;16.90;93.90;;;;;;5024465;28;20037;-44
2023/07/24 01:12:13;;;;;;;9.98;7.50;;;16.80;93.90;;;;;;5030066;28;20335;-43
2023/07/24 01:15:09;;;;;;;11.98;8.27;;;16.80;93.80;;;;;;5026816;28;20413;-43
2023/07/24 01:17:45;;;;;;;11.85;7.82;;;16.70;93.70;;;;;;5029994;28;20030;-44
2023/07/24 01:20:15;;;;;;;13.48;8.65;;;16.70;93.60;;;;;;5030761;28;20033;-43
2023/07/24 01:23:12;;;;;;;12.93;7.63;;;16.60;93.50;;;;;;5031453;28;20458;-43
2023/07/24 01:25:48;;;;;;;14.52;8.70;;;16.60;93.50;;;;;;5013101;28;20065;-44
2023/07/24 01:28:15;;;;;;;10.45;7.70;;;16.70;93.40;;;;;;5014257;28;20048;-43
2023/07/24 01:30:41;;;;;;;12.50;7.78;;;16.60;93.20;;;;;;5031316;28;20037;-43
2023/07/24 01:33:08;;;;;;;8.52;7.45;;;16.60;93.10;;;;;;5030597;28;20358;-43
2023/07/24 01:35:34;;;;;;;11.35;7.63;;;16.60;93.10;;;;;;5019764;28;20025;-43
2023/07/24 01:38:04;;;;;;;16.08;8.07;;;16.60;92.90;;;;;;5018700;28;20105;-43
2023/07/24 01:40:32;;;;;;;10.77;8.05;;;16.60;92.80;;;;;;5032905;28;20017;-43
2023/07/24 01:43:02;;;;;;;14.50;8.27;;;16.60;92.60;;;;;;5028565;28;20486;-42
2023/07/24 01:45:30;;;;;;;9.48;7.78;;;16.60;92.50;;;;;;5030351;28;20030;-43
2023/07/24 01:47:56;;;;;;;15.38;9.15;;;16.50;92.40;;;;;;5032128;28;20040;-44
2023/07/24 01:50:22;;;;;;;9.50;7.25;;;16.50;92.30;;;;;;5026538;28;20026;-43
2023/07/24 01:52:48;;;;;;;11.10;7.75;;;16.50;92.30;;;;;;5014760;28;20354;-43
2023/07/24 01:55:16;;;;;;;11.57;8.13;;;16.50;92.20;;;;;;5030499;28;20022;-43
2023/07/24 01:57:45;;;;;;;9.30;7.72;;;16.40;92.10;;;;;;5022737;28;20067;-43
2023/07/24 02:00:12;;;;;;;10.73;7.53;;;16.50;92.10;;;;;;5016853;28;20034;-43
2023/07/24 02:02:44;;;;;;;14.27;8.45;;;16.40;92.00;;;;;;5052051;28;20703;-43
2023/07/24 02:05:11;;;;;;;9.40;7.07;;;16.50;91.80;;;;;;5034741;28;20037;-42
2023/07/24 02:07:37;;;;;;;13.40;7.57;;;16.40;91.80;;;;;;5035456;28;20362;-44
2023/07/24 02:10:07;;;;;;;11.00;7.75;;;16.40;91.80;;;;;;5035097;28;20033;-43
2023/07/24 02:12:33;;;;;;;10.98;7.95;;;16.40;91.90;;;;;;5036114;28;20470;-43
2023/07/24 02:14:59;;;;;;;11.05;8.15;;;16.40;92.00;;;;;;5024844;28;20030;-42
2023/07/24 02:17:30;;;;;;;14.93;8.27;;;16.40;92.10;;;;;;5035468;28;20079;-42
2023/07/24 02:20:00;;;;;;;12.70;9.07;;;16.40;92.10;;;;;;5034528;28;20036;-42
2023/07/24 02:22:26;;;;;;;9.50;7.45;;;16.30;92.00;;;;;;5035884;28;20022;-45
2023/07/24 02:24:53;;;;;;;12.40;8.23;;;16.30;92.20;;;;;;5034032;28;20051;-41
2023/07/24 02:27:30;;;;;;;11.00;8.27;;;16.30;92.30;;;;;;5034956;28;20064;-42
2023/07/24 02:29:59;;;;;;;11.68;8.48;;;16.30;92.40;;;;;;5029839;28;20073;-42
2023/07/24 02:32:26;;;;;;;12.20;8.73;;;16.30;92.40;;;;;;5034390;28;20033;-43
2023/07/24 02:34:53;;;;;;;10.60;8.52;;;16.30;92.50;;;;;;5026841;28;20034;-42
2023/07/24 02:37:20;;;;;;;10.85;8.20;;;16.30;92.50;;;;;;5031536;28;20025;-42
2023/07/24 02:39:47;;;;;;;13.23;9.82;;;16.30;92.50;;;;;;5034457;28;20037;-44
2023/07/24 02:42:14;;;;;;;11.95;8.60;;;16.30;92.60;;;;;;5029209;28;20524;-43
2023/07/24 02:44:43;;;;;;;14.15;9.65;;;16.30;92.70;;;;;;5032869;28;20033;-42
2023/07/24 02:47:09;;;;;;;14.15;9.27;;;16.30;92.80;;;;;;5031525;28;20028;-42
2023/07/24 02:49:35;;;;;;;15.95;9.82;;;16.30;92.80;;;;;;5035186;28;20040;-43
2023/07/24 02:52:03;;;;;;;12.52;9.32;;;16.40;92.90;;;;;;5034934;28;20034;-44
2023/07/24 02:54:30;;;;;;;14.32;10.15;;;16.40;92.90;;;;;;5032792;28;20029;-43
2023/07/24 02:56:57;;;;;;;13.52;9.95;;;16.40;92.80;;;;;;5029777;28;20040;-42
2023/07/24 02:59:25;;;;;;;12.95;9.80;;;16.40;92.90;;;;;;5025044;28;20442;-43
2023/07/24 03:01:55;;;;;;;13.10;11.02;;;16.50;92.90;;;;;;5033206;28;20056;-43
2023/07/24 03:04:23;;;;;;;16.33;10.85;;;16.40;92.80;;;;;;5032966;28;20037;-43
2023/07/24 03:06:50;;;;;;;14.80;10.13;;;16.50;92.80;;;;;;5030322;28;20144;-43
2023/07/24 03:09:15;;;;;;;13.95;11.35;;;16.50;92.90;;;;;;5033100;28;20033;-43
2023/07/24 03:11:44;;;;;;;13.63;10.90;;;16.50;92.90;;;;;;5030513;28;20092;-43
2023/07/24 03:14:15;;;;;;;16.93;11.03;;;16.50;92.90;;;;;;5027921;28;20063;-43
2023/07/24 03:16:42;;;;;;;19.45;10.70;;;16.50;92.90;;;;;;5033732;28;20327;-43
2023/07/24 03:19:11;;;;;;;17.65;12.45;;;16.60;93.00;;;;;;5035207;28;20025;-46
2023/07/24 03:21:38;;;;;;;14.52;11.13;;;16.50;92.90;;;;;;5025087;28;20031;-44
2023/07/24 03:24:06;;;;;;;13.95;10.40;;;16.60;92.90;;;;;;5029048;28;20140;-44
2023/07/24 03:26:32;;;;;;;16.40;12.63;;;16.60;93.00;;;;;;5033611;28;20442;-44
2023/07/24 03:28:59;;;;;;;15.35;11.85;;;16.60;93.00;;;;;;5035017;28;20108;-45
2023/07/24 03:31:26;;;;;;;14.75;11.30;;;16.60;93.00;;;;;;5024747;28;20123;-43
2023/07/24 03:33:55;;;;;;;17.35;13.77;;;16.60;93.10;;;;;;5033568;28;20025;-44
2023/07/24 03:36:24;;;;;;;15.77;13.70;;;16.60;93.20;;;;;;5031620;28;20025;-44
2023/07/24 03:38:54;;;;;;;17.08;15.18;;;16.60;93.30;;;;;;5024400;28;20036;-46
2023/07/24 03:41:19;;;;;;;18.80;16.33;;;16.70;93.50;;;;;;5034892;28;20068;-46
2023/07/24 03:43:46;;;;;;;17.52;15.27;;;16.80;93.60;;;;;;5018839;28;20022;-43
2023/07/24 03:46:13;;;;;;;18.35;16.42;;;16.80;93.60;;;;;;5033860;28;20021;-42
2023/07/24 03:48:40;;;;;;;18.10;15.75;;;16.90;93.70;;;;;;5015703;28;20029;-48
2023/07/24 03:51:07;;;;;;;17.80;15.98;;;16.90;93.70;;;;;;5026798;28;20172;-45
2023/07/24 03:53:34;;;;;;;19.35;16.90;;;16.90;93.60;;;;;;5029260;28;20048;-46
2023/07/24 03:56:00;;;;;;;19.40;17.38;;;16.90;93.70;;;;;;5031219;28;20423;-43
2023/07/24 03:58:36;;;;;;;17.98;16.08;;;17.00;93.70;;;;;;5030796;28;20028;-44
2023/07/24 04:01:03;;;;;;;17.85;15.95;;;17.00;93.80;;;;;;5032468;28;20389;-48
2023/07/24 04:03:33;;;;;;;17.67;14.82;;;17.00;93.80;;;;;;5029611;28;20068;-45
2023/07/24 04:06:00;;;;;;;17.92;16.02;;;17.00;93.90;;;;;;5032622;28;20444;-46
2023/07/24 04:08:28;;;;;;;18.63;16.73;;;17.00;93.80;;;;;;5032035;28;20029;-44
2023/07/24 04:11:01;;;;;;;21.27;17.25;;;17.00;93.80;;;;;;5030816;28;20668;-43
2023/07/24 04:13:27;;;;;;;17.55;15.68;;;17.00;93.90;;;;;;5026964;28;20112;-46
2023/07/24 04:15:57;;;;;;;18.55;16.75;;;17.10;93.80;;;;;;5029749;28;20482;-43
2023/07/24 04:18:23;;;;;;;18.23;16.38;;;17.10;93.80;;;;;;5031004;28;20028;-45
2023/07/24 04:20:49;;;;;;;19.80;17.67;;;17.10;93.70;;;;;;5030313;28;20104;-44
2023/07/24 04:23:16;;;;;;;16.80;15.10;;;17.10;93.70;;;;;;5031093;28;20033;-44
2023/07/24 04:25:45;;;;;;;16.63;14.88;;;17.10;93.80;;;;;;5032886;28;20398;-46
2023/07/24 04:28:13;;;;;;;18.90;17.00;;;17.10;93.70;;;;;;5033063;28;20037;-44
2023/07/24 04:30:40;;;;;;;19.58;17.02;;;17.10;93.80;;;;;;5031539;28;20295;-44
2023/07/24 04:33:07;;;;;;;20.60;18.52;;;17.10;93.80;;;;;;5029119;28;20033;-44
2023/07/24 04:35:40;;;;;;;18.55;16.70;;;17.10;93.80;;;;;;5028651;28;20053;-44
2023/07/24 04:38:09;;;;;;;18.23;16.45;;;17.10;93.80;;;;;;5013857;28;20033;-44
2023/07/24 04:40:36;;;;;;;18.90;16.95;;;17.20;93.70;;;;;;5027124;28;20044;-44
2023/07/24 04:43:06;;;;;;;17.60;15.27;;;17.10;93.70;;;;;;5012231;28;20060;-43
2023/07/24 04:45:33;;;;;;;16.13;14.55;;;17.20;93.50;;;;;;5016579;28;20029;-44
2023/07/24 04:48:00;;;;;;;17.48;15.85;;;17.20;93.60;;;;;;5025280;28;20037;-42
2023/07/24 04:50:27;;;;;;;17.73;15.73;;;17.20;93.50;;;;;;5019136;28;20029;-44
2023/07/24 04:52:53;;;;;;;18.38;16.50;;;17.20;93.40;;;;;;5031412;28;20041;-44
2023/07/24 04:55:21;;;;;;;18.63;16.15;;;17.20;93.30;;;;;;5030270;28;20022;-44
2023/07/24 04:57:48;;;;;;;17.10;15.35;;;17.30;93.40;;;;;;5030908;28;20029;-45
2023/07/24 05:00:16;;;;;;;16.30;14.60;;;17.30;93.30;;;;;;5031712;28;20049;-46
2023/07/24 05:02:42;;;;;;;15.88;14.38;;;17.30;93.20;;;;;;5046134;28;20057;-44
2023/07/24 05:05:09;;;;;;;15.10;13.60;;;17.20;93.10;;;;;;5018416;28;20608;-44
2023/07/24 05:07:41;;;;;;;14.93;13.52;;;17.30;93.10;;;;;;5030727;28;20608;-45
2023/07/24 05:10:10;;;;;;;14.25;12.75;;;17.30;93.00;;;;;;5031080;28;20063;-45
2023/07/24 05:12:39;;;;;;;14.90;13.35;;;17.20;93.00;;;;;;5030995;28;20549;-44
2023/07/24 05:15:08;;;;;;;14.65;13.05;;;17.20;92.90;;;;;;5029115;28;20018;-44
2023/07/24 05:17:33;;;;;;;16.85;13.32;;;17.30;92.90;;;;;;5032279;28;20041;-45
2023/07/24 05:20:02;;;;;;;13.18;11.88;;;17.30;92.70;;;;;;5029580;28;20359;-45
2023/07/24 05:22:29;;;;;;;14.00;11.75;;;17.20;92.80;;;;;;5029716;28;20032;-44
2023/07/24 05:24:56;;;;;;;13.70;12.35;;;17.20;92.80;;;;;;5032027;28;20026;-45
2023/07/24 05:27:23;;;;;;;12.95;11.68;;;17.20;92.80;;;;;;5028700;28;20025;-46
2023/07/24 05:29:51;;;;;;;13.38;12.05;;;17.20;92.80;;;;;;5027974;28;20033;-45
2023/07/24 05:32:18;;;;;;;12.13;9.90;;;17.30;92.70;;;;;;5027830;28;20025;-45
2023/07/24 05:34:47;;;;;;;10.77;9.77;;;17.30;92.70;;;;;;5027609;28;20025;-47
2023/07/24 05:37:14;;;;;;;13.45;12.05;;;17.30;92.70;;;;;;5027155;28;20156;-46
2023/07/24 05:39:41;;;;;;;11.88;10.50;;;17.30;92.40;;;;;;5031754;28;20029;-44
2023/07/24 05:42:08;;;;;;;14.88;10.60;;;17.40;92.50;;;;;;5031078;28;20393;-45
2023/07/24 05:44:35;;;;;;;12.10;9.95;;;17.40;92.30;;;;;;5025441;28;20029;-45
2023/07/24 05:47:03;;;;;;;11.95;10.75;;;17.30;92.40;;;;;;5027443;28;20044;-45
2023/07/24 05:49:29;;;;;;;12.35;10.82;;;17.40;92.30;;;;;;5030617;28;20079;-45
2023/07/24 05:51:57;;;;;;;11.88;10.48;;;17.40;92.40;;;;;;5029792;28;20112;-46
2023/07/24 05:54:23;;;;;;;14.50;12.88;;;17.40;92.30;;;;;;5017921;28;20122;-46
2023/07/24 05:56:52;;;;;;;14.23;10.85;;;17.40;92.20;;;;;;5015176;28;20117;-47
2023/07/24 05:59:18;;;;;;;11.88;10.63;;;17.50;92.30;;;;;;5031878;28;20024;-45
2023/07/24 06:01:45;;;;;;;10.52;9.45;;;17.50;92.00;;;;;;5017435;28;20040;-45
2023/07/24 06:04:15;;;;;;;12.00;10.82;;;17.50;92.00;;;;;;5030405;28;20056;-45
2023/07/24 06:06:43;;;;;;;12.80;11.50;;;17.40;91.80;;;;;;5026326;28;20052;-47
2023/07/24 06:09:10;;;;;;;11.75;10.63;;;17.40;91.90;;;;;;5031123;28;20404;-46
2023/07/24 06:11:35;;;;;;;11.73;10.57;;;17.50;92.00;;;;;;5031872;28;20037;-46
2023/07/24 06:14:03;;;;;;;12.50;11.20;;;17.50;91.90;;;;;;5030198;28;20025;-45
2023/07/24 06:16:31;;;;;;;12.93;11.55;;;17.50;91.70;;;;;;5027713;28;20121;-46
2023/07/24 06:19:03;;;;;;;13.15;11.75;;;17.40;91.80;;;;;;5031811;28;20025;-45
2023/07/24 06:21:31;;;;;;;12.27;10.57;;;17.40;91.90;;;;;;5029690;28;20025;-46
2023/07/24 06:23:57;;;;;;;13.48;12.07;;;17.50;91.90;;;;;;5029305;28;20096;-46
2023/07/24 06:26:24;;;;;;;17.40;12.65;;;17.40;91.90;;;;;;5029231;28;20026;-48
2023/07/24 06:28:50;;;;;;;16.15;14.43;;;17.40;91.90;;;;;;5030344;28;20022;-48
2023/07/24 06:31:18;;;;;;;21.05;16.33;;;17.40;92.00;;;;;;5025655;28;20084;-45
2023/07/24 06:33:47;;;;;;;20.95;14.25;;;17.40;92.10;;;;;;5029635;28;20092;-46
2023/07/24 06:36:14;;;;;;;17.25;14.88;;;17.40;92.10;;;;;;5027453;28;20030;-45
2023/07/24 06:38:42;;;;;;;12.93;11.48;;;17.50;92.10;;;;;;5030073;28;20033;-48
2023/07/24 06:41:09;;;;;;;12.65;11.32;;;17.40;92.00;;;;;;5025583;28;20529;-44
2023/07/24 06:43:37;;;;;;;13.07;10.30;;;17.50;92.20;;;;;;5035938;28;20044;-45
2023/07/24 06:46:04;;;;;;;12.00;10.80;;;17.50;92.20;;;;;;5032458;28;20040;-48
2023/07/24 06:48:32;;;;;;;11.68;10.35;;;17.60;92.20;;;;;;5035163;28;20041;-45
2023/07/24 06:51:00;;;;;;;11.00;9.90;;;17.60;92.10;;;;;;5027864;28;20447;-45
2023/07/24 06:53:26;;;;;;;11.82;10.65;;;17.70;92.00;;;;;;5029388;28;20037;-45
2023/07/24 06:55:53;;;;;;;12.70;11.38;;;17.70;91.90;;;;;;5030689;28;20022;-44
2023/07/24 06:58:19;;;;;;;12.95;10.82;;;17.70;91.60;;;;;;5014794;28;20104;-46
2023/07/24 07:00:47;;;;;;;12.20;11.00;;;17.80;91.80;;;;;;5030537;28;20565;-46
2023/07/24 07:03:13;;;;;;;13.13;11.32;;;17.90;91.60;;;;;;5035421;28;20037;-45
2023/07/24 07:05:40;;;;;;;12.45;11.25;;;18.00;91.60;;;;;;5033133;28;20037;-46
2023/07/24 07:08:08;;;;;;;13.05;11.75;;;18.10;91.30;;;;;;5033255;28;20140;-45
2023/07/24 07:10:34;;;;;;;10.30;9.30;;;18.20;91.10;;;;;;5032187;28;20484;-45
2023/07/24 07:13:01;;;;;;;11.85;10.60;;;18.40;91.00;;;;;;5030807;28;20096;-45
2023/07/24 07:15:31;;;;;;;10.85;9.75;;;18.50;90.10;;;;;;5029800;28;20034;-47
2023/07/24 07:17:56;;;;;;;10.80;8.60;;;18.60;89.80;;;;;;5028036;28;20029;-47
2023/07/24 07:20:24;;;;;;;13.55;9.25;;;18.70;89.60;;;;;;5032212;28;20032;-45
2023/07/24 07:22:53;;;;;;;10.35;9.27;;;18.70;89.00;;;;;;5029285;28;20075;-45
2023/07/24 07:25:23;;;;;;;11.52;10.32;;;18.60;88.80;;;;;;5029237;28;20037;-45
2023/07/24 07:27:49;;;;;;;10.73;9.60;;;18.60;89.20;;;;;;5031096;28;20083;-45
2023/07/24 07:30:15;;;;;;;13.05;11.65;;;18.90;89.60;;;;;;5030923;28;20107;-47
2023/07/24 07:32:41;;;;;;;12.82;10.23;;;19.00;89.00;;;;;;5032483;28;20037;-45
2023/07/24 07:35:08;;;;;;;10.13;7.95;;;18.90;88.40;;;;;;5027205;28;20347;-45
2023/07/24 07:37:38;;;;;;;11.25;9.13;;;19.10;88.50;;;;;;5035157;28;20040;-45
2023/07/24 07:40:06;;;;;;;12.43;9.15;;;19.20;87.90;;;;;;5032946;28;20022;-45
2023/07/24 07:42:33;;;;;;;13.70;9.63;;;19.30;87.60;;;;;;5030254;28;20136;-45
2023/07/24 07:45:02;;;;;;;11.05;8.65;;;19.30;87.30;;;;;;5033680;28;20048;-48
2023/07/24 07:47:29;;;;;;;11.17;8.40;;;19.30;86.90;;;;;;5029328;28;20029;-45
2023/07/24 07:49:56;;;;;;;10.65;8.40;;;19.30;87.30;;;;;;5034640;28;20022;-45
2023/07/24 07:52:22;;;;;;;9.25;8.05;;;19.30;86.90;;;;;;5034549;28;20025;-47
2023/07/24 07:54:54;;;;;;;9.63;7.47;;;19.40;87.20;;;;;;5025086;28;20350;-45
2023/07/24 07:57:22;;;;;;;9.93;8.63;;;19.40;87.20;;;;;;5014935;28;20026;-46
2023/07/24 07:59:49;;;;;;;8.80;7.90;;;19.70;87.60;;;;;;5034503;28;20045;-46
2023/07/24 08:02:15;;;;;;;9.60;7.75;;;20.10;85.60;;;;;;5031171;28;20056;-46
2023/07/24 08:04:43;;;;;;;8.73;7.18;;;20.40;84.40;;;;;;5028900;28;20454;-46
2023/07/24 08:07:10;;;;;;;10.40;7.45;;;20.70;83.40;;;;;;5030801;28;20030;-46
2023/07/24 08:09:38;;;;;;;9.73;7.90;;;21.10;82.20;;;;;;5034166;28;20018;-46
2023/07/24 08:12:06;;;;;;;11.55;7.55;;;21.30;80.70;;;;;;5025797;28;20393;-48
2023/07/24 08:14:31;;;;;;;8.15;7.07;;;21.60;80.00;;;;;;5033120;28;20041;-46
2023/07/24 08:17:00;;;;;;;7.28;6.57;;;21.80;79.20;;;;;;5031067;28;20037;-46
2023/07/24 08:19:31;;;;;;;7.22;5.95;;;22.20;79.10;;;;;;5034204;28;20036;-47
2023/07/24 08:21:57;;;;;;;7.95;6.30;;;22.20;78.80;;;;;;5031563;28;20032;-46
2023/07/24 08:24:23;;;;;;;7.93;5.85;;;22.40;78.50;;;;;;5032293;28;20029;-46
2023/07/24 08:26:49;;;;;;;6.25;5.65;;;22.40;77.10;;;;;;5025950;28;20033;-47
2023/07/24 08:29:16;;;;;;;7.10;5.45;;;22.80;77.40;;;;;;5016215;28;20022;-47
2023/07/24 08:31:43;;;;;;;8.88;6.13;;;23.30;75.30;;;;;;5030660;28;20025;-46
2023/07/24 08:34:15;;;;;;;8.82;6.60;;;23.10;74.80;;;;;;5018233;28;20037;-46
2023/07/24 08:36:44;;;;;;;8.15;5.75;;;22.60;73.80;;;;;;5023399;28;20021;-46
2023/07/24 08:39:10;;;;;;;6.97;4.75;;;22.20;76.30;;;;;;5029359;28;20053;-46
2023/07/24 08:41:37;;;;;;;9.48;6.18;;;21.90;76.80;;;;;;5027246;28;20127;-47
2023/07/24 08:44:08;;;;;;;8.25;6.53;;;21.70;77.40;;;;;;5029765;28;20451;-45
2023/07/24 08:46:41;;;;;;;8.52;6.68;;;21.70;78.10;;;;;;5031981;28;20046;-46
2023/07/24 08:49:12;;;;;;;7.03;5.63;;;21.70;78.80;;;;;;5029380;28;20026;-47
2023/07/24 08:51:42;;;;;;;7.72;5.22;;;21.80;78.50;;;;;;5026279;28;20021;-46
2023/07/24 08:54:19;;;;;;;7.95;4.97;;;21.80;78.40;;;;;;5030058;28;20025;-46
2023/07/24 08:56:49;;;;;;;11.85;6.22;;;21.90;78.20;;;;;;5031068;28;20033;-46
2023/07/24 08:59:16;;;;;;;6.97;5.75;;;21.80;77.30;;;;;;5030881;28;20029;-46
2023/07/24 09:01:43;;;;;;;8.82;6.10;;;21.90;77.70;;;;;;5028645;28;20346;-46
2023/07/24 09:04:10;;;;;;;9.55;6.07;;;22.10;76.60;;;;;;5030800;28;20163;-47
2023/07/24 09:06:38;;;;;;;7.90;6.15;;;21.80;76.60;;;;;;5026501;28;20084;-48
2023/07/24 09:09:16;;;;;;;7.93;6.00;;;21.70;77.30;;;;;;5023377;28;20440;-48
2023/07/24 09:11:52;;;;;;;7.25;5.93;;;21.50;78.20;;;;;;5018846;28;20792;-46
2023/07/24 09:14:30;;;;;;;9.45;6.05;;;21.30;78.30;;;;;;5030615;28;20366;-46
2023/07/24 09:17:15;;;;;;;8.10;6.82;;;21.00;79.10;;;;;;5013534;28;20645;-47
2023/07/24 09:19:41;;;;;;;9.65;6.15;;;20.90;79.40;;;;;;5031253;28;20497;-46
2023/07/24 09:22:28;;;;;;;10.18;5.35;;;21.10;78.70;;;;;;5030608;28;20053;-46
2023/07/24 09:24:57;;;;;;;8.77;4.88;;;21.30;78.70;;;;;;5016382;28;20339;-46
2023/07/24 09:27:29;;;;;;;7.57;4.95;;;21.50;77.80;;;;;;5001064;28;20366;-46
2023/07/24 09:29:58;;;;;;;8.88;4.78;;;21.90;77.80;;;;;;5027517;28;20040;-47
2023/07/24 09:32:27;;;;;;;7.05;5.13;;;22.20;74.50;;;;;;5045938;28;20076;-46
2023/07/24 09:34:57;;;;;;;9.35;4.90;;;22.30;73.30;;;;;;5015541;28;20029;-48
2023/07/24 09:37:41;;;;;;;7.57;4.55;;;22.40;74.10;;;;;;5029452;28;20561;-47
2023/07/24 09:40:13;;;;;;;8.73;4.90;;;22.70;74.00;;;;;;5032414;28;20041;-47
2023/07/24 09:42:44;;;;;;;9.57;5.03;;;22.70;74.70;;;;;;5019047;28;20045;-48
2023/07/24 09:45:12;;;;;;;6.63;4.60;;;23.00;75.80;;;;;;5030185;28;20626;-47
2023/07/24 09:47:40;;;;;;;8.27;6.05;;;22.90;73.10;;;;;;5029837;28;20037;-47
2023/07/24 09:50:10;;;;;;;7.97;5.70;;;22.80;72.40;;;;;;5031273;28;20080;-47
2023/07/24 09:52:43;;;;;;;7.75;5.15;;;22.40;73.70;;;;;;5025168;28;20033;-46
2023/07/24 09:55:36;;;;;;;7.13;6.38;;;22.50;75.50;;;;;;5038724;28;20029;-47
2023/07/24 09:58:05;;;;;;;8.98;5.82;;;22.90;75.60;;;;;;5030459;28;20099;-49
2023/07/24 10:00:34;;;;;;;10.40;6.63;;;23.20;73.80;;;;;;5027486;28;20038;-46
2023/07/24 10:03:01;;;;;;;9.90;5.72;;;23.50;72.70;;;;;;5018119;28;20060;-47
2023/07/24 10:05:29;;;;;;;8.30;5.30;;;24.10;73.60;;;;;;5012781;28;20053;-48
2023/07/24 10:07:55;;;;;;;9.48;5.50;;;24.40;71.20;;;;;;5013915;28;20064;-47
2023/07/24 10:10:25;;;;;;;7.47;5.35;;;24.40;70.10;;;;;;5026268;28;20141;-46
2023/07/24 10:12:53;;;;;;;7.05;4.95;;;24.20;69.60;;;;;;5023128;28;20084;-48
2023/07/24 10:15:20;;;;;;;6.75;5.05;;;24.20;72.00;;;;;;5026767;28;20413;-47
2023/07/24 10:17:46;;;;;;;7.15;5.30;;;24.00;70.00;;;;;;5033169;28;20033;-47
2023/07/24 10:20:19;;;;;;;9.88;5.15;;;23.70;70.10;;;;;;5032090;28;20109;-47
2023/07/24 10:22:48;;;;;;;7.78;5.07;;;23.60;70.80;;;;;;5033479;28;20034;-48
2023/07/24 10:25:16;;;;;;;8.60;5.82;;;24.20;73.60;;;;;;5033293;28;20482;-47
2023/07/24 10:27:46;;;;;;;7.22;4.78;;;24.40;69.20;;;;;;5030916;28;20041;-46
2023/07/24 10:30:16;;;;;;;7.05;5.47;;;24.40;69.20;;;;;;5035264;28;20074;-48
2023/07/24 10:32:47;;;;;;;8.95;5.95;;;24.30;68.90;;;;;;5031861;28;20041;-47
2023/07/24 10:35:14;;;;;;;9.05;6.05;;;23.80;70.30;;;;;;5032048;28;20838;-46
2023/07/24 10:37:41;;;;;;;9.98;5.57;;;23.50;70.70;;;;;;5021129;28;20033;-46
2023/07/24 10:40:18;;;;;;;8.02;4.88;;;23.60;71.60;;;;;;5029860;28;20030;-47
2023/07/24 10:42:58;;;;;;;9.05;6.50;;;23.70;71.60;;;;;;5029588;28;20067;-46
2023/07/24 10:45:23;;;;;;;7.38;5.13;;;24.10;70.10;;;;;;5032155;28;20037;-49
2023/07/24 10:47:51;;;;;;;8.70;5.63;;;24.40;70.70;;;;;;5031916;28;20351;-51
2023/07/24 10:50:18;;;;;;;8.63;5.13;;;24.70;69.20;;;;;;5030129;28;20030;-48
2023/07/24 10:52:47;;;;;;;9.90;5.32;;;24.40;69.10;;;;;;5029272;28;20112;-46
2023/07/24 10:55:18;;;;;;;7.05;4.78;;;24.70;66.80;;;;;;5033363;28;20036;-48
2023/07/24 10:57:52;;;;;;;7.72;5.57;;;24.60;68.60;;;;;;5021357;28;20366;-50
2023/07/24 11:00:19;;;;;;;6.53;5.18;;;25.00;69.40;;;;;;5023637;28;20026;-47
2023/07/24 11:02:46;;;;;;;8.27;5.38;;;25.20;67.60;;;;;;5035630;28;20026;-47
2023/07/24 11:05:24;;;;;;;8.18;5.22;;;25.00;66.30;;;;;;5033092;28;20075;-47
2023/07/24 11:07:52;;;;;;;8.20;4.97;;;24.90;67.50;;;;;;5034801;28;20521;-47
2023/07/24 11:10:22;;;;;;;8.80;5.53;;;24.80;67.60;;;;;;5019196;28;20453;-47
2023/07/24 11:12:51;;;;;;;8.35;4.93;;;24.70;68.90;;;;;;5016709;28;20029;-50
2023/07/24 11:15:26;;;;;;;11.23;5.68;;;24.70;67.80;;;;;;5026626;28;20464;-50
2023/07/24 11:17:57;;;;;;;8.45;5.20;;;24.30;66.70;;;;;;5017988;28;20037;-47
2023/07/24 11:20:24;;;;;;;7.35;4.75;;;23.80;68.40;;;;;;5034560;28;20025;-47
2023/07/24 11:23:00;;;;;;;7.22;4.82;;;23.20;68.30;;;;;;5032074;28;20044;-48
2023/07/24 11:25:29;;;;;;;8.20;5.25;;;23.00;69.40;;;;;;5032470;28;20041;-49
2023/07/24 11:27:54;;;;;;;8.20;5.73;;;22.60;70.20;;;;;;5026999;28;20406;-47
2023/07/24 11:30:23;;;;;;;10.82;5.38;;;22.80;72.20;;;;;;5015486;28;20030;-49
2023/07/24 11:32:51;;;;;;;8.20;5.40;;;22.80;71.10;;;;;;5033518;28;20034;-50
2023/07/24 11:35:19;;;;;;;8.52;5.50;;;22.50;70.00;;;;;;5031395;28;20075;-48
2023/07/24 11:37:46;;;;;;;8.88;5.60;;;22.50;71.60;;;;;;5030689;28;20421;-46
2023/07/24 11:40:15;;;;;;;9.77;5.65;;;22.90;72.60;;;;;;5034413;28;20339;-47
2023/07/24 11:42:44;;;;;;;7.05;5.00;;;23.40;70.40;;;;;;5032119;28;20041;-51
2023/07/24 11:45:10;;;;;;;9.70;5.55;;;23.90;69.50;;;;;;5032982;28;20033;-48
2023/07/24 11:47:50;;;;;;;7.30;5.07;;;24.20;68.90;;;;;;5021985;28;20038;-47
2023/07/24 11:50:20;;;;;;;7.80;4.60;;;24.70;67.00;;;;;;5014171;28;20030;-49
2023/07/24 11:52:49;;;;;;;8.20;4.75;;;24.80;65.60;;;;;;5017368;28;20033;-47
2023/07/24 11:55:18;;;;;;;7.07;4.57;;;24.20;65.40;;;;;;5032995;28;20087;-47
2023/07/24 11:57:55;;;;;;;7.18;4.72;;;23.90;67.80;;;;;;5012626;28;20036;-49
2023/07/24 12:00:23;;;;;;;7.68;4.25;;;23.80;67.10;;;;;;5030893;28;20033;-49
2023/07/24 12:02:51;;;;;;;5.47;4.13;;;23.60;66.80;;;;;;5014625;28;20025;-49
2023/07/24 12:05:17;;;;;;;8.00;5.20;;;23.70;67.80;;;;;;5042539;28;20061;-47
2023/07/24 12:07:46;;;;;;;11.43;4.40;;;23.90;68.50;;;;;;5033471;28;20119;-48
2023/07/24 12:10:15;;;;;;;12.20;3.95;;;23.60;67.50;;;;;;5014995;28;20029;-50
2023/07/24 12:12:44;;;;;;;11.18;3.85;;;22.70;70.00;;;;;;5031420;28;20033;-48
2023/07/24 12:15:11;;;;;;;13.43;4.05;;;21.90;72.70;;;;;;5031098;28;20022;-48
2023/07/24 12:17:38;;;;;;;10.93;4.18;;;21.40;74.90;;;;;;5031085;28;20025;-48
2023/07/24 12:20:10;;;;;;;7.90;3.08;;;21.10;76.50;;;;;;5031611;28;20091;-47
2023/07/24 12:22:38;;;;;;;8.65;3.70;;;20.90;78.00;;;;;;5013415;28;20025;-48
2023/07/24 12:25:06;;;;;;;6.32;3.17;;;20.80;76.90;;;;;;5027785;28;20029;-47
2023/07/24 12:27:32;;;;;;;6.40;2.45;;;20.60;76.60;;;;;;5030915;28;20041;-47
2023/07/24 12:30:12;;;;;;;4.95;2.85;;;20.60;74.60;;;;;;5030730;28;20398;-47
2023/07/24 12:32:44;;;;;;;4.50;2.63;;;20.50;74.10;;;;;;5030443;28;20454;-50
2023/07/24 12:35:10;;;;;;;2.72;1.02;;;20.40;73.30;;;;;;5032162;28;20029;-47
2023/07/24 12:37:39;;;;;;;2.58;1.30;;;20.40;71.10;;;;;;5032443;28;20026;-48
2023/07/24 12:40:11;;;;;;;2.20;1.38;;;20.30;71.70;;;;;;5031754;28;20032;-50
2023/07/24 12:42:42;;;;;;;3.40;1.50;;;20.40;71.30;;;;;;5031008;28;20088;-49
2023/07/24 12:45:08;;;;;;;4.65;1.92;;;20.40;72.10;;;;;;5032117;28;20024;-49